Time;durP1;ratioP1;P1;durP2;ratioP2;P2;SDS_P1;SDS_P2;PMS_P1;PMS_P2;Temp;Humidity;BMP_temperature;BMP_pressure;BME280_temperature;BME280_humidity;BME280_pressure;Samples;Min_cycle;Max_cycle;Signal;HPM_P1;HPM_P2
2023/06/07 00:00:13;;;;;;;10.65;5.03;;;14.80;98.70;;;;;;4893206;29;20043;-68
2023/06/07 00:02:41;;;;;;;13.45;6.18;;;14.80;99.00;;;;;;4901697;29;20031;-68
2023/06/07 00:05:09;;;;;;;6.80;4.75;;;14.70;99.30;;;;;;4868745;29;20047;-68
2023/06/07 00:07:35;;;;;;;10.02;5.15;;;14.70;99.60;;;;;;4904343;29;20031;-68
2023/06/07 00:10:03;;;;;;;11.40;5.00;;;14.60;99.70;;;;;;4897384;29;20639;-68
2023/06/07 00:12:30;;;;;;;12.00;6.28;;;14.60;99.90;;;;;;4871967;29;20046;-68
2023/06/07 00:14:56;;;;;;;11.82;6.30;;;14.50;99.90;;;;;;4900847;29;20046;-68
2023/06/07 00:17:24;;;;;;;10.40;6.18;;;14.50;99.90;;;;;;4884301;29;23346;-68
2023/06/07 00:19:52;;;;;;;8.20;5.05;;;14.40;99.90;;;;;;4861490;29;20048;-68
2023/06/07 00:22:19;;;;;;;11.82;5.45;;;14.30;99.90;;;;;;4884649;29;20020;-68
2023/06/07 00:24:45;;;;;;;10.32;5.60;;;14.30;99.90;;;;;;4884736;29;20040;-68
2023/06/07 00:27:11;;;;;;;11.93;5.50;;;14.20;99.90;;;;;;4871919;29;20050;-68
2023/06/07 00:29:39;;;;;;;9.85;5.95;;;14.20;99.90;;;;;;4901028;29;20075;-68
2023/06/07 00:32:05;;;;;;;10.05;5.40;;;14.10;99.90;;;;;;4886860;29;20058;-68
2023/06/07 00:34:32;;;;;;;7.45;5.00;;;14.10;99.90;;;;;;4887446;29;20308;-68
2023/06/07 00:36:58;;;;;;;11.95;6.38;;;14.10;99.90;;;;;;4902037;29;20411;-68
2023/06/07 00:39:25;;;;;;;12.32;5.90;;;14.10;99.90;;;;;;4849865;29;20036;-68
2023/06/07 00:41:52;;;;;;;12.18;5.57;;;14.10;99.90;;;;;;4881245;29;20035;-68
2023/06/07 00:44:19;;;;;;;12.60;6.40;;;14.10;99.90;;;;;;4885876;29;21443;-68
2023/06/07 00:46:46;;;;;;;10.05;6.40;;;14.00;99.90;;;;;;4869591;29;20036;-68
2023/06/07 00:49:16;;;;;;;9.65;5.35;;;14.00;99.90;;;;;;4886228;29;20035;-68
2023/06/07 00:51:44;;;;;;;13.25;6.00;;;14.00;99.90;;;;;;4882539;29;20042;-68
2023/06/07 00:54:12;;;;;;;12.25;5.78;;;14.00;99.90;;;;;;4887604;29;20837;-68
2023/06/07 00:56:39;;;;;;;9.43;5.13;;;14.00;99.90;;;;;;4884285;29;20430;-68
2023/06/07 00:59:05;;;;;;;16.10;6.05;;;13.90;99.90;;;;;;4883535;29;20043;-68
2023/06/07 01:01:33;;;;;;;9.10;4.35;;;13.90;99.90;;;;;;4875965;29;20040;-68
2023/06/07 01:04:00;;;;;;;10.38;5.35;;;13.90;99.90;;;;;;4898038;29;20054;-68
2023/06/07 01:06:26;;;;;;;12.55;5.68;;;13.90;99.90;;;;;;4881703;29;20419;-68
2023/06/07 01:08:53;;;;;;;8.93;5.20;;;14.00;99.90;;;;;;4901303;29;20403;-68
2023/06/07 01:11:23;;;;;;;8.38;4.68;;;13.90;99.90;;;;;;4897121;29;21746;-68
2023/06/07 01:13:51;;;;;;;6.75;4.43;;;13.90;99.90;;;;;;4890840;29;20042;-68
2023/06/07 01:16:17;;;;;;;12.50;5.68;;;13.90;99.90;;;;;;4888046;29;20048;-68
2023/06/07 01:18:45;;;;;;;13.13;5.95;;;13.90;99.90;;;;;;4883743;29;20047;-68
2023/06/07 01:21:15;;;;;;;13.35;5.03;;;13.90;99.90;;;;;;4895947;29;20070;-68
2023/06/07 01:23:41;;;;;;;10.43;4.60;;;13.90;99.90;;;;;;4900023;29;20054;-68
2023/06/07 01:26:08;;;;;;;11.23;5.40;;;13.90;99.90;;;;;;4884778;29;20035;-68
2023/06/07 01:28:34;;;;;;;11.10;4.93;;;13.90;99.90;;;;;;4884696;29;20055;-68
2023/06/07 01:31:01;;;;;;;10.40;5.10;;;13.90;99.90;;;;;;4879389;29;20036;-68
2023/06/07 01:33:30;;;;;;;7.82;5.10;;;13.80;99.90;;;;;;4872451;29;20032;-67
2023/06/07 01:35:58;;;;;;;13.63;5.28;;;13.80;99.90;;;;;;4887015;29;20055;-68
2023/06/07 01:38:27;;;;;;;13.05;5.45;;;13.80;99.90;;;;;;4884807;29;20059;-68
2023/06/07 01:40:54;;;;;;;10.52;4.53;;;13.80;99.90;;;;;;4893000;29;20056;-68
2023/06/07 01:43:21;;;;;;;10.18;4.75;;;13.80;99.90;;;;;;4884956;29;20054;-68
2023/06/07 01:45:48;;;;;;;11.18;4.90;;;13.80;99.90;;;;;;4898950;29;20040;-68
2023/06/07 01:48:18;;;;;;;14.07;5.38;;;13.70;99.90;;;;;;4868928;29;20696;-68
2023/06/07 01:50:44;;;;;;;10.80;5.68;;;13.70;99.90;;;;;;4875816;29;20028;-68
2023/06/07 01:53:10;;;;;;;11.65;5.20;;;13.70;99.90;;;;;;4889461;29;20480;-68
2023/06/07 01:55:37;;;;;;;12.73;5.70;;;13.70;99.90;;;;;;4888888;29;20047;-68
2023/06/07 01:58:10;;;;;;;10.30;5.28;;;13.60;99.90;;;;;;4904022;29;20043;-68
2023/06/07 02:00:55;;;;;;;6.75;4.45;;;13.60;99.90;;;;;;4878054;29;20047;-68
2023/06/07 02:03:25;;;;;;;9.73;5.28;;;13.60;99.90;;;;;;4883945;29;20043;-68
2023/06/07 02:06:06;;;;;;;11.13;5.25;;;13.50;99.90;;;;;;4900075;29;20031;-68
2023/06/07 02:08:36;;;;;;;13.05;6.72;;;13.50;99.90;;;;;;4884101;29;20047;-68
2023/06/07 02:11:03;;;;;;;11.88;5.18;;;13.40;99.90;;;;;;4879053;29;20043;-68
2023/06/07 02:13:40;;;;;;;10.32;5.53;;;13.40;99.90;;;;;;4901739;29;20050;-68
2023/06/07 02:16:07;;;;;;;11.32;4.72;;;13.40;99.90;;;;;;4887832;29;20200;-68
2023/06/07 02:18:40;;;;;;;9.05;4.85;;;13.40;99.90;;;;;;4905398;29;21058;-68
2023/06/07 02:21:07;;;;;;;;;;;13.40;99.90;;;;;;4876657;29;20028;-68
2023/06/07 02:23:33;;;;;;;12.38;6.07;;;13.40;99.90;;;;;;4900481;29;20409;-68
2023/06/07 02:26:02;;;;;;;7.95;4.60;;;13.30;99.90;;;;;;4869804;29;20043;-68
2023/06/07 02:28:28;;;;;;;11.43;5.00;;;13.30;99.90;;;;;;4868383;29;20028;-68
2023/06/07 02:30:57;;;;;;;12.55;6.40;;;13.20;99.90;;;;;;4876559;29;20078;-68
2023/06/07 02:33:24;;;;;;;13.30;4.80;;;13.20;99.90;;;;;;4902338;29;20044;-68
2023/06/07 02:35:50;;;;;;;11.23;5.22;;;13.20;99.90;;;;;;4886703;29;20051;-67
2023/06/07 02:38:17;;;;;;;11.60;5.45;;;13.10;99.90;;;;;;4872253;29;20043;-68
2023/06/07 02:40:43;;;;;;;10.98;5.47;;;13.10;99.90;;;;;;4877160;29;20148;-68
2023/06/07 02:43:09;;;;;;;7.18;4.40;;;13.10;99.90;;;;;;4883226;29;20044;-68
2023/06/07 02:45:36;;;;;;;7.93;4.60;;;13.10;99.90;;;;;;4900544;29;20046;-68
2023/06/07 02:48:06;;;;;;;11.48;5.72;;;13.10;99.90;;;;;;4884689;29;20047;-68
2023/06/07 02:50:32;;;;;;;9.90;5.05;;;13.10;99.90;;;;;;4877744;29;20050;-68
2023/06/07 02:52:59;;;;;;;11.70;6.25;;;13.10;99.90;;;;;;4902981;29;20055;-68
2023/06/07 02:55:26;;;;;;;10.00;5.38;;;13.00;99.90;;;;;;4903103;29;20063;-68
2023/06/07 02:57:52;;;;;;;10.35;4.95;;;13.00;99.90;;;;;;4890830;29;20647;-68
2023/06/07 03:00:23;;;;;;;11.05;6.07;;;13.00;99.90;;;;;;4901751;28;20036;-68
2023/06/07 03:03:05;;;;;;;;;;;13.00;99.90;;;;;;4903890;29;20121;-68
2023/06/07 03:05:34;;;;;;;13.05;5.57;;;12.90;99.90;;;;;;4903099;29;19919;-68
2023/06/07 03:08:10;;;;;;;10.02;5.22;;;12.90;99.90;;;;;;4873469;29;20070;-68
2023/06/07 03:10:37;;;;;;;9.05;5.22;;;12.90;99.90;;;;;;4897441;29;20391;-68
2023/06/07 03:13:05;;;;;;;7.88;4.53;;;12.90;99.90;;;;;;4902143;29;20051;-68
2023/06/07 03:15:35;;;;;;;12.35;5.97;;;12.90;99.90;;;;;;4887306;29;20487;-68
2023/06/07 03:18:03;;;;;;;11.50;4.72;;;12.90;99.90;;;;;;4874114;29;20043;-68
2023/06/07 03:20:33;;;;;;;13.95;6.28;;;12.90;99.90;;;;;;4887243;29;20036;-68
2023/06/07 03:23:04;;;;;;;13.98;5.57;;;12.90;99.90;;;;;;4891750;29;20132;-68
2023/06/07 03:25:31;;;;;;;8.73;5.45;;;12.80;99.90;;;;;;4905083;29;20043;-68
2023/06/07 03:27:57;;;;;;;9.95;5.28;;;12.80;99.90;;;;;;4870630;29;20813;-68
2023/06/07 03:30:32;;;;;;;7.97;3.60;;;12.80;99.90;;;;;;4895050;28;20047;-68
2023/06/07 03:32:58;;;;;;;12.80;5.40;;;12.80;99.90;;;;;;4888109;29;20043;-68
2023/06/07 03:35:24;;;;;;;13.30;5.47;;;12.80;99.90;;;;;;4901301;29;20047;-68
2023/06/07 03:37:51;;;;;;;10.30;4.35;;;12.80;99.90;;;;;;4870507;29;20046;-68
2023/06/07 03:40:23;;;;;;;13.27;5.63;;;12.80;99.90;;;;;;4881993;29;20043;-68
2023/06/07 03:42:50;;;;;;;7.55;4.28;;;12.80;99.90;;;;;;4891150;29;20040;-68
2023/06/07 03:45:16;;;;;;;11.85;5.68;;;12.70;99.90;;;;;;4890148;29;20043;-68
2023/06/07 03:47:43;;;;;;;15.68;4.72;;;12.80;99.90;;;;;;4902156;29;20043;-68
2023/06/07 03:50:10;;;;;;;10.07;4.75;;;12.80;99.90;;;;;;4880935;29;20044;-68
2023/06/07 03:52:38;;;;;;;12.38;5.05;;;12.80;99.90;;;;;;4871290;29;20031;-68
2023/06/07 03:55:04;;;;;;;9.40;5.05;;;12.80;99.90;;;;;;4885150;29;20074;-68
2023/06/07 03:57:32;;;;;;;10.73;5.05;;;12.80;99.90;;;;;;4885605;29;20358;-68
2023/06/07 04:00:00;;;;;;;9.00;4.80;;;12.80;99.90;;;;;;4895042;29;20043;-68
2023/06/07 04:02:29;;;;;;;10.57;5.10;;;12.80;99.90;;;;;;4906416;29;20039;-68
2023/06/07 04:04:57;;;;;;;9.10;4.50;;;12.70;99.90;;;;;;4906289;29;20047;-68
2023/06/07 04:07:23;;;;;;;14.18;6.00;;;12.70;99.90;;;;;;4901019;29;20043;-68
2023/06/07 04:09:49;;;;;;;11.10;5.05;;;12.70;99.90;;;;;;4877683;29;20070;-68
2023/06/07 04:12:17;;;;;;;9.32;4.88;;;12.60;99.90;;;;;;4899909;29;20418;-68
2023/06/07 04:14:44;;;;;;;14.50;6.65;;;12.60;99.90;;;;;;4899596;29;20593;-68
2023/06/07 04:17:11;;;;;;;11.18;5.22;;;12.50;99.90;;;;;;4901213;29;20031;-68
2023/06/07 04:19:38;;;;;;;11.07;4.70;;;12.50;99.90;;;;;;4878939;29;20619;-68
2023/06/07 04:22:05;;;;;;;9.32;4.30;;;12.50;99.90;;;;;;4887102;29;20503;-68
2023/06/07 04:24:32;;;;;;;13.38;5.43;;;12.60;99.90;;;;;;4905568;29;20044;-68
2023/06/07 04:27:01;;;;;;;9.82;4.68;;;12.60;99.90;;;;;;4888291;29;20673;-68
2023/06/07 04:29:27;;;;;;;11.48;5.20;;;12.60;99.90;;;;;;4894370;29;20061;-68
2023/06/07 04:31:56;;;;;;;11.48;5.05;;;12.60;99.90;;;;;;4881765;29;20043;-69
2023/06/07 04:34:24;;;;;;;9.18;4.93;;;12.70;99.90;;;;;;4885149;29;20043;-68
2023/06/07 04:36:51;;;;;;;10.48;5.38;;;12.70;99.90;;;;;;4882762;29;20030;-69
2023/06/07 04:39:20;;;;;;;11.55;5.53;;;12.70;99.90;;;;;;4879834;29;20067;-68
2023/06/07 04:41:48;;;;;;;9.00;5.05;;;12.70;99.90;;;;;;4896951;29;20040;-69
2023/06/07 04:44:27;;;;;;;12.07;4.63;;;12.70;99.90;;;;;;4888963;29;20043;-69
2023/06/07 04:47:04;;;;;;;14.43;5.70;;;12.80;99.90;;;;;;4905754;29;21737;-69
2023/06/07 04:49:33;;;;;;;19.15;7.13;;;12.80;99.90;;;;;;4883124;29;20545;-69
2023/06/07 04:52:03;;;;;;;10.82;4.45;;;12.80;99.90;;;;;;4881914;29;20442;-69
2023/06/07 04:54:37;;;;;;;14.95;4.95;;;12.80;99.90;;;;;;4899033;29;20596;-68
2023/06/07 04:57:08;;;;;;;11.05;5.68;;;12.80;99.90;;;;;;4883295;29;20506;-68
2023/06/07 04:59:42;;;;;;;15.82;5.47;;;12.90;99.90;;;;;;4895154;29;20042;-68
2023/06/07 05:02:11;;;;;;;11.32;5.38;;;13.00;99.90;;;;;;4885252;29;20023;-69
2023/06/07 05:04:38;;;;;;;10.60;5.53;;;13.10;99.90;;;;;;4886648;29;20035;-69
2023/06/07 05:07:06;;;;;;;14.65;5.40;;;13.30;99.90;;;;;;4887811;29;20038;-68
2023/06/07 05:09:35;;;;;;;12.50;4.28;;;13.40;99.90;;;;;;4898592;29;20063;-68
2023/06/07 05:12:06;;;;;;;15.82;6.13;;;13.60;99.90;;;;;;4882811;29;20047;-68
2023/06/07 05:14:32;;;;;;;13.00;5.38;;;13.70;99.90;;;;;;4882631;29;20496;-68
2023/06/07 05:16:59;;;;;;;9.90;5.65;;;13.80;99.90;;;;;;4883925;29;20032;-68
2023/06/07 05:19:29;;;;;;;12.98;6.25;;;13.80;99.90;;;;;;4893925;29;20036;-67
2023/06/07 05:21:57;;;;;;;14.68;6.22;;;13.90;99.90;;;;;;4894966;29;20038;-68
2023/06/07 05:24:23;;;;;;;9.43;4.50;;;14.00;99.90;;;;;;4882013;29;20044;-68
2023/06/07 05:26:50;;;;;;;12.63;4.85;;;14.20;99.90;;;;;;4885878;29;20605;-68
2023/06/07 05:29:16;;;;;;;11.80;4.55;;;14.30;99.90;;;;;;4888155;29;20448;-68
2023/06/07 05:31:43;;;;;;;8.75;4.05;;;14.40;99.90;;;;;;4865803;29;20040;-68
2023/06/07 05:34:10;;;;;;;11.55;5.32;;;14.50;99.90;;;;;;4867676;29;20176;-68
2023/06/07 05:36:39;;;;;;;13.15;7.32;;;14.60;99.90;;;;;;4866437;29;20502;-68
2023/06/07 05:39:07;;;;;;;15.45;6.50;;;14.90;99.90;;;;;;4868205;29;20078;-69
2023/06/07 05:41:34;;;;;;;13.35;4.95;;;15.10;99.90;;;;;;4861546;29;20108;-69
2023/06/07 05:44:01;;;;;;;8.45;3.92;;;15.30;99.90;;;;;;4897949;28;22273;-69
2023/06/07 05:46:27;;;;;;;8.40;3.83;;;15.60;99.90;;;;;;4880822;29;20044;-69
2023/06/07 05:48:54;;;;;;;9.75;4.28;;;15.70;99.90;;;;;;4901662;29;20047;-69
2023/06/07 05:51:25;;;;;;;14.63;5.25;;;15.80;99.90;;;;;;4861889;29;20046;-69
2023/06/07 05:53:51;;;;;;;8.82;3.85;;;15.70;99.90;;;;;;4901826;29;20043;-69
2023/06/07 05:56:19;;;;;;;14.95;6.03;;;15.50;99.90;;;;;;4899617;29;20038;-69
2023/06/07 05:58:47;;;;;;;17.60;9.32;;;15.40;99.90;;;;;;4881498;29;20043;-67
2023/06/07 06:01:13;;;;;;;13.48;6.95;;;15.30;99.90;;;;;;4890438;29;20360;-68
2023/06/07 06:03:40;;;;;;;16.10;7.50;;;15.40;99.90;;;;;;4898361;29;20487;-68
2023/06/07 06:06:17;;;;;;;12.05;5.75;;;15.30;99.90;;;;;;4893051;29;20395;-69
2023/06/07 06:08:45;;;;;;;14.23;5.03;;;15.20;99.90;;;;;;4884135;29;20109;-69
2023/06/07 06:11:13;;;;;;;14.63;6.45;;;15.10;99.90;;;;;;4894223;29;20062;-67
2023/06/07 06:13:40;;;;;;;11.98;5.60;;;15.10;99.90;;;;;;4902808;29;20036;-67
2023/06/07 06:16:06;;;;;;;10.48;4.90;;;15.10;99.90;;;;;;4882348;29;20506;-67
2023/06/07 06:18:33;;;;;;;11.35;5.70;;;15.10;99.90;;;;;;4897682;29;20041;-68
2023/06/07 06:20:59;;;;;;;11.30;4.43;;;15.10;99.90;;;;;;4877209;29;20023;-68
2023/06/07 06:23:26;;;;;;;8.77;5.03;;;15.10;99.90;;;;;;4868163;29;20054;-68
2023/06/07 06:25:53;;;;;;;11.90;5.63;;;15.20;99.90;;;;;;4870843;29;20027;-67
2023/06/07 06:28:20;;;;;;;11.82;6.72;;;15.30;99.90;;;;;;4902759;29;20036;-68
2023/06/07 06:30:47;;;;;;;12.35;6.78;;;15.40;99.90;;;;;;4898982;29;20040;-68
2023/06/07 06:33:13;;;;;;;11.80;5.70;;;15.50;99.90;;;;;;4908739;29;20044;-68
2023/06/07 06:35:39;;;;;;;10.88;5.65;;;15.50;99.90;;;;;;4906082;29;20031;-68
2023/06/07 06:38:06;;;;;;;14.10;6.43;;;15.50;99.90;;;;;;4869478;29;20555;-67
2023/06/07 06:40:32;;;;;;;9.30;5.25;;;15.50;99.90;;;;;;4894602;29;20479;-67
2023/06/07 06:43:00;;;;;;;13.55;5.78;;;15.50;99.90;;;;;;4870880;29;20093;-68
2023/06/07 06:45:34;;;;;;;6.82;4.13;;;15.50;99.90;;;;;;4884801;29;20063;-67
2023/06/07 06:48:01;;;;;;;12.38;6.07;;;15.50;99.90;;;;;;4903180;29;20043;-67
2023/06/07 06:50:29;;;;;;;17.50;8.35;;;15.50;99.90;;;;;;4882439;29;20047;-67
2023/06/07 06:52:55;;;;;;;11.20;6.38;;;15.40;99.90;;;;;;4890156;29;20038;-68
2023/06/07 06:55:22;;;;;;;10.13;5.57;;;15.40;99.90;;;;;;4890522;29;20031;-68
2023/06/07 06:57:48;;;;;;;17.92;7.03;;;15.40;99.90;;;;;;4890911;29;20088;-68
2023/06/07 07:00:14;;;;;;;12.98;6.13;;;15.40;99.90;;;;;;4879353;29;20050;-68
2023/06/07 07:02:41;;;;;;;17.52;7.18;;;15.40;99.90;;;;;;4902743;29;20043;-68
2023/06/07 07:05:07;;;;;;;12.82;4.68;;;15.50;99.90;;;;;;4886108;29;20035;-67
2023/06/07 07:07:35;;;;;;;12.27;6.10;;;15.60;99.90;;;;;;4887183;29;20042;-68
2023/06/07 07:10:01;;;;;;;9.57;4.97;;;15.70;99.90;;;;;;4879412;29;20450;-68
2023/06/07 07:12:28;;;;;;;12.43;5.75;;;15.90;99.90;;;;;;4902679;29;20043;-67
2023/06/07 07:14:54;;;;;;;15.55;5.93;;;15.90;99.90;;;;;;4891365;29;20521;-67
2023/06/07 07:17:21;;;;;;;12.40;5.55;;;16.00;99.90;;;;;;4894491;29;20067;-67
2023/06/07 07:19:47;;;;;;;10.90;4.95;;;16.10;99.90;;;;;;4899436;29;20494;-67
2023/06/07 07:22:13;;;;;;;9.02;5.28;;;16.20;99.90;;;;;;4884949;29;20395;-67
2023/06/07 07:24:40;;;;;;;15.07;5.93;;;16.40;99.90;;;;;;4901864;29;20027;-68
2023/06/07 07:27:09;;;;;;;15.00;5.85;;;16.40;99.90;;;;;;4887236;29;20036;-67
2023/06/07 07:29:35;;;;;;;14.20;5.85;;;16.50;99.90;;;;;;4877859;29;20621;-68
2023/06/07 07:32:01;;;;;;;11.75;6.55;;;16.50;99.90;;;;;;4899514;29;20627;-68
2023/06/07 07:34:28;;;;;;;11.02;4.80;;;16.50;99.90;;;;;;4900692;29;20594;-68
2023/06/07 07:37:02;;;;;;;11.68;5.47;;;16.60;99.90;;;;;;4906806;29;20351;-68
2023/06/07 07:39:29;;;;;;;10.50;5.20;;;16.70;99.90;;;;;;4870332;29;20036;-68
2023/06/07 07:41:55;;;;;;;12.55;5.65;;;16.90;99.90;;;;;;4899103;29;20036;-68
2023/06/07 07:44:21;;;;;;;11.23;5.18;;;17.00;99.90;;;;;;4884160;29;20043;-68
2023/06/07 07:46:47;;;;;;;10.52;4.63;;;17.20;99.90;;;;;;4885442;29;20024;-67
2023/06/07 07:49:14;;;;;;;11.70;5.38;;;17.40;99.90;;;;;;4883011;29;20039;-68
2023/06/07 07:51:40;;;;;;;12.60;5.75;;;17.60;99.90;;;;;;4862281;29;20050;-68
2023/06/07 07:54:07;;;;;;;13.30;5.40;;;17.90;99.90;;;;;;4884876;29;20047;-68
2023/06/07 07:56:34;;;;;;;9.45;4.53;;;18.20;99.90;;;;;;4888626;29;20471;-68
2023/06/07 07:59:00;;;;;;;11.45;5.78;;;18.40;99.90;;;;;;4889636;29;20035;-68
2023/06/07 08:01:27;;;;;;;10.48;4.50;;;18.60;99.90;;;;;;4867154;29;20027;-68
2023/06/07 08:03:53;;;;;;;9.35;4.55;;;18.70;99.90;;;;;;4886609;29;20051;-67
2023/06/07 08:06:20;;;;;;;11.55;4.03;;;18.80;99.90;;;;;;4872111;29;20394;-68
2023/06/07 08:08:49;;;;;;;8.82;3.70;;;18.90;99.90;;;;;;4901896;29;20225;-67
2023/06/07 08:11:16;;;;;;;7.22;3.80;;;19.10;99.90;;;;;;4893470;29;20036;-67
2023/06/07 08:13:42;;;;;;;12.02;4.25;;;19.50;99.90;;;;;;4883145;29;20035;-67
2023/06/07 08:16:08;;;;;;;8.52;4.20;;;19.70;99.90;;;;;;4903769;29;20046;-67
2023/06/07 08:18:35;;;;;;;7.93;3.88;;;19.80;99.90;;;;;;4906485;29;20450;-68
2023/06/07 08:21:02;;;;;;;8.80;3.90;;;19.90;99.90;;;;;;4897294;29;20028;-67
2023/06/07 08:23:28;;;;;;;11.98;5.22;;;20.10;99.90;;;;;;4886882;29;20040;-67
2023/06/07 08:25:57;;;;;;;10.05;4.90;;;20.30;99.90;;;;;;4901738;29;20051;-67
2023/06/07 08:28:26;;;;;;;10.65;5.47;;;20.50;99.80;;;;;;4901677;29;20071;-68
2023/06/07 08:30:53;;;;;;;9.32;3.97;;;20.40;99.00;;;;;;4893963;29;20050;-68
2023/06/07 08:33:19;;;;;;;9.38;4.45;;;20.30;99.00;;;;;;4881900;29;20036;-69
2023/06/07 08:35:46;;;;;;;8.57;3.65;;;20.30;99.00;;;;;;4899416;29;20047;-68
2023/06/07 08:38:12;;;;;;;9.15;4.50;;;20.20;99.10;;;;;;4887205;29;20035;-68
2023/06/07 08:40:39;;;;;;;8.75;4.60;;;20.20;98.90;;;;;;4896386;29;20458;-68
2023/06/07 08:43:07;;;;;;;8.82;3.90;;;20.20;98.80;;;;;;4887651;29;20073;-67
2023/06/07 08:45:33;;;;;;;6.03;2.67;;;20.10;98.80;;;;;;4900987;29;20047;-67
2023/06/07 08:48:06;;;;;;;9.52;3.50;;;20.10;98.80;;;;;;4883608;29;20039;-67
2023/06/07 08:50:36;;;;;;;5.20;2.60;;;20.20;98.70;;;;;;4892431;29;20024;-67
2023/06/07 08:53:09;;;;;;;8.05;3.92;;;20.40;98.80;;;;;;4883932;29;20051;-67
2023/06/07 08:55:36;;;;;;;6.07;3.63;;;20.50;98.60;;;;;;4900423;29;20050;-67
2023/06/07 08:58:03;;;;;;;8.80;4.90;;;20.50;98.50;;;;;;4902823;29;20475;-68
2023/06/07 09:00:30;;;;;;;7.35;3.80;;;20.30;98.20;;;;;;4881188;29;20567;-67
2023/06/07 09:02:56;;;;;;;8.18;4.50;;;20.20;98.40;;;;;;4905297;29;20696;-68
2023/06/07 09:05:23;;;;;;;8.07;3.97;;;20.20;98.50;;;;;;4868019;29;20043;-68
2023/06/07 09:07:50;;;;;;;8.07;4.93;;;20.30;98.60;;;;;;4900377;29;20038;-68
2023/06/07 09:10:20;;;;;;;11.95;5.53;;;20.30;98.40;;;;;;4876705;29;20054;-68
2023/06/07 09:12:47;;;;;;;7.25;3.65;;;20.30;98.10;;;;;;4900721;29;20035;-68
2023/06/07 09:15:18;;;;;;;7.97;3.60;;;20.30;98.20;;;;;;4884451;29;20500;-68
2023/06/07 09:17:58;;;;;;;6.93;3.72;;;20.40;98.40;;;;;;4900525;29;20039;-68
2023/06/07 09:20:27;;;;;;;6.75;4.55;;;20.60;98.30;;;;;;4895868;29;20039;-69
2023/06/07 09:23:06;;;;;;;8.65;4.53;;;20.80;98.00;;;;;;4904451;29;20047;-68
2023/06/07 09:25:32;;;;;;;7.30;3.80;;;20.90;97.80;;;;;;4903269;29;20039;-68
2023/06/07 09:28:01;;;;;;;9.57;4.65;;;20.90;97.80;;;;;;4900458;29;20079;-68
2023/06/07 09:30:28;;;;;;;6.82;3.88;;;21.00;97.70;;;;;;4875954;29;20031;-68
2023/06/07 09:32:54;;;;;;;8.40;4.68;;;21.10;97.40;;;;;;4900871;29;20039;-68
2023/06/07 09:35:21;;;;;;;11.00;5.18;;;21.10;97.40;;;;;;4899859;29;20494;-68
2023/06/07 09:37:52;;;;;;;6.90;3.65;;;21.10;97.10;;;;;;4898475;28;20035;-68
2023/06/07 09:40:19;;;;;;;9.07;5.80;;;21.00;97.00;;;;;;4893416;29;20502;-68
2023/06/07 09:42:57;;;;;;;8.90;4.72;;;20.90;97.20;;;;;;4902476;29;20550;-68
2023/06/07 09:45:25;;;;;;;9.55;4.72;;;20.90;97.50;;;;;;4899075;29;20039;-68
2023/06/07 09:48:07;;;;;;;7.00;4.05;;;20.80;97.40;;;;;;4899927;29;20455;-68
2023/06/07 09:50:33;;;;;;;9.52;5.50;;;20.70;97.20;;;;;;4858168;29;20032;-68
2023/06/07 09:53:01;;;;;;;8.77;4.97;;;20.50;97.40;;;;;;4887235;29;20044;-68
2023/06/07 09:55:28;;;;;;;8.25;4.00;;;20.50;97.80;;;;;;4888777;29;20024;-68
2023/06/07 09:57:55;;;;;;;7.32;4.38;;;20.50;97.50;;;;;;4901737;29;20027;-68
2023/06/07 10:00:22;;;;;;;9.57;4.65;;;20.60;97.40;;;;;;4887797;29;20055;-68
2023/06/07 10:02:49;;;;;;;5.72;4.00;;;20.60;97.20;;;;;;4883731;29;20036;-68
2023/06/07 10:05:17;;;;;;;9.05;4.50;;;20.70;97.20;;;;;;4898080;29;20032;-68
2023/06/07 10:07:47;;;;;;;7.60;3.72;;;20.70;97.30;;;;;;4883390;29;20039;-68
2023/06/07 10:10:17;;;;;;;6.78;3.15;;;20.70;97.20;;;;;;4892061;29;21744;-67
2023/06/07 10:12:46;;;;;;;11.38;5.38;;;20.80;97.20;;;;;;4900366;29;20039;-68
2023/06/07 10:15:22;;;;;;;7.20;3.72;;;21.10;97.00;;;;;;4904304;29;20043;-68
2023/06/07 10:17:59;;;;;;;6.75;4.40;;;21.10;96.80;;;;;;4904004;29;20035;-68
2023/06/07 10:20:40;;;;;;;9.43;4.35;;;21.30;96.70;;;;;;4878497;29;20542;-68
2023/06/07 10:23:13;;;;;;;10.05;5.25;;;21.70;96.30;;;;;;4882886;29;20024;-68
2023/06/07 10:26:04;;;;;;;5.50;3.67;;;22.00;96.10;;;;;;4881380;29;20456;-68
2023/06/07 10:28:41;;;;;;;7.53;4.22;;;22.30;95.80;;;;;;4882546;29;20051;-68
2023/06/07 10:31:11;;;;;;;6.88;3.03;;;22.50;95.30;;;;;;4891443;29;20030;-68
2023/06/07 10:33:38;;;;;;;7.35;3.88;;;22.70;95.10;;;;;;4898983;29;20050;-68
2023/06/07 10:36:08;;;;;;;7.60;3.55;;;23.00;94.80;;;;;;4881586;29;20047;-68
2023/06/07 10:38:34;;;;;;;12.15;4.75;;;23.40;94.60;;;;;;4898910;29;20040;-68
2023/06/07 10:41:03;;;;;;;11.20;4.78;;;23.80;93.80;;;;;;4894511;29;21315;-68
2023/06/07 10:43:31;;;;;;;8.68;3.10;;;24.00;93.30;;;;;;4888378;29;20035;-68
2023/06/07 10:46:23;;;;;;;8.30;3.00;;;24.10;92.80;;;;;;4904296;29;20419;-68
2023/06/07 10:48:51;;;;;;;9.10;3.45;;;24.30;92.40;;;;;;4900145;29;20379;-70
2023/06/07 10:51:18;;;;;;;8.05;3.55;;;24.40;91.80;;;;;;4875792;29;20398;-71
2023/06/07 10:53:56;;;;;;;8.10;3.80;;;24.50;91.60;;;;;;4897656;29;20534;-71
2023/06/07 10:56:26;;;;;;;11.05;5.00;;;24.60;91.30;;;;;;4882300;29;20055;-71
2023/06/07 10:58:52;;;;;;;8.30;5.00;;;24.80;91.10;;;;;;4896966;29;20020;-71
2023/06/07 11:01:23;;;;;;;8.57;4.55;;;25.30;91.00;;;;;;4892577;29;20043;-71
2023/06/07 11:03:50;;;;;;;8.18;3.30;;;25.80;90.40;;;;;;4887359;29;20039;-72
2023/06/07 11:06:17;;;;;;;6.72;3.45;;;26.10;89.30;;;;;;4891721;29;20043;-71
2023/06/07 11:08:44;;;;;;;7.20;3.42;;;26.30;87.60;;;;;;4887898;29;23460;-72
2023/06/07 11:11:38;;;;;;;12.57;3.47;;;26.40;86.00;;;;;;4894816;29;20070;-71
2023/06/07 11:14:04;;;;;;;6.00;2.83;;;26.30;85.50;;;;;;4903442;29;20051;-71
2023/06/07 11:16:30;;;;;;;6.88;4.50;;;26.20;84.60;;;;;;4903164;29;20471;-72
2023/06/07 11:19:04;;;;;;;5.80;3.13;;;26.10;84.30;;;;;;4887086;29;20492;-71
2023/06/07 11:22:06;;;;;;;7.28;3.72;;;26.10;84.00;;;;;;4879052;29;20048;-69
2023/06/07 11:24:35;;;;;;;5.17;2.43;;;26.30;84.10;;;;;;4890942;29;20043;-69
2023/06/07 11:27:01;;;;;;;6.53;2.92;;;26.50;83.70;;;;;;4890451;29;20044;-68
2023/06/07 11:29:28;;;;;;;10.27;3.63;;;26.60;82.80;;;;;;4895854;29;20048;-71
2023/06/07 11:32:00;;;;;;;7.50;3.08;;;26.60;82.10;;;;;;4879335;29;20531;-67
2023/06/07 11:34:31;;;;;;;6.03;2.63;;;26.60;81.80;;;;;;4882099;29;20519;-67
2023/06/07 11:37:10;;;;;;;5.05;2.85;;;26.60;81.50;;;;;;4897975;29;20048;-71
2023/06/07 11:39:37;;;;;;;5.03;2.50;;;26.70;81.60;;;;;;4877397;29;20043;-68
2023/06/07 11:42:04;;;;;;;7.78;2.30;;;26.70;81.50;;;;;;4881214;29;20036;-69
2023/06/07 11:44:30;;;;;;;5.70;4.07;;;26.60;81.50;;;;;;4886082;29;20036;-69
2023/06/07 11:46:57;;;;;;;7.57;3.08;;;26.50;80.20;;;;;;4889192;29;20035;-69
2023/06/07 11:49:23;;;;;;;6.18;2.63;;;26.40;80.70;;;;;;4867226;29;20044;-71
2023/06/07 11:51:50;;;;;;;5.47;3.25;;;26.30;80.70;;;;;;4878387;29;20503;-72
2023/06/07 11:54:16;;;;;;;5.90;3.42;;;26.20;81.10;;;;;;4883740;29;20040;-71
2023/06/07 11:56:43;;;;;;;15.07;7.75;;;26.30;81.10;;;;;;4897504;29;20106;-71
2023/06/07 11:59:15;;;;;;;9.48;4.15;;;26.40;81.30;;;;;;4880707;29;20047;-70
2023/06/07 12:01:43;;;;;;;8.98;5.35;;;26.30;80.70;;;;;;4874402;29;20373;-71
2023/06/07 12:04:10;;;;;;;6.60;3.58;;;26.30;81.20;;;;;;4899214;29;20056;-70
2023/06/07 12:06:36;;;;;;;6.53;4.60;;;26.50;81.10;;;;;;4887995;29;20044;-70
2023/06/07 12:09:10;;;;;;;6.90;3.65;;;26.70;80.70;;;;;;4885758;29;20028;-70
2023/06/07 12:11:37;;;;;;;5.65;3.58;;;26.80;80.20;;;;;;4877802;29;20129;-72
2023/06/07 12:14:05;;;;;;;4.45;2.72;;;26.80;79.40;;;;;;4881360;29;20048;-72
2023/06/07 12:16:32;;;;;;;6.38;3.58;;;26.60;79.10;;;;;;4882548;29;20040;-71
2023/06/07 12:18:58;;;;;;;9.50;3.67;;;26.50;79.00;;;;;;4880485;29;20040;-68
2023/06/07 12:21:24;;;;;;;6.97;2.53;;;26.50;79.10;;;;;;4874060;29;20024;-68
2023/06/07 12:23:52;;;;;;;7.13;2.90;;;26.40;79.20;;;;;;4881552;29;20051;-68
2023/06/07 12:26:30;;;;;;;7.22;2.90;;;26.30;78.90;;;;;;4881421;29;21107;-68
2023/06/07 12:29:01;;;;;;;8.27;3.83;;;26.20;79.30;;;;;;4902353;29;20052;-68
2023/06/07 12:31:28;;;;;;;8.02;3.80;;;26.00;79.90;;;;;;4885039;29;20042;-68
2023/06/07 12:34:11;;;;;;;6.22;3.03;;;25.80;80.90;;;;;;4899002;29;20038;-67
2023/06/07 12:36:39;;;;;;;8.93;4.22;;;25.60;82.60;;;;;;4884318;29;20027;-69
2023/06/07 12:39:10;;;;;;;8.82;4.40;;;25.70;83.70;;;;;;4897574;29;20387;-67
2023/06/07 12:41:38;;;;;;;10.45;5.07;;;25.90;84.70;;;;;;4892097;29;20027;-68
2023/06/07 12:44:11;;;;;;;10.23;4.55;;;26.20;84.60;;;;;;4877878;29;20050;-68
2023/06/07 12:46:39;;;;;;;10.73;4.82;;;26.80;84.00;;;;;;4897525;29;20551;-68
2023/06/07 12:49:07;;;;;;;8.25;4.03;;;27.20;82.00;;;;;;4902423;29;20371;-67